createdAt,value
2023-05-08T00:00:42.135Z,22.07
2023-05-08T00:01:47.531Z,22.08
2023-05-08T00:02:52.991Z,22.06
2023-05-08T00:03:58.763Z,22.06
2023-05-08T00:05:04.975Z,22.05
2023-05-08T00:06:10.783Z,22.05
2023-05-08T00:07:16.188Z,22.05
2023-05-08T00:08:21.561Z,22.06
2023-05-08T00:09:26.893Z,22.06
2023-05-08T00:10:32.300Z,22.06
2023-05-08T00:11:37.719Z,22.06
2023-05-08T00:12:43.175Z,22.06
2023-05-08T00:13:48.654Z,22.06
2023-05-08T00:14:54.064Z,22.06
2023-05-08T00:15:59.427Z,22.05
2023-05-08T00:17:04.901Z,22.04
2023-05-08T00:18:10.731Z,22.05
2023-05-08T00:19:16.095Z,22.06
2023-05-08T00:20:21.450Z,22.06
2023-05-08T00:21:26.967Z,22.07
2023-05-08T00:22:32.353Z,22.06
2023-05-08T00:23:37.729Z,22.09
2023-05-08T00:24:43.140Z,22.09
2023-05-08T00:25:48.574Z,22.08
2023-05-08T00:26:53.952Z,22.08
2023-05-08T00:27:59.341Z,22.08
2023-05-08T00:29:06.087Z,22.08
2023-05-08T00:30:11.987Z,22.07
2023-05-08T00:31:17.796Z,22.06
2023-05-08T00:32:23.315Z,22.07
2023-05-08T00:33:29.161Z,22.07
2023-05-08T00:34:34.577Z,22.06
2023-05-08T00:35:39.956Z,22.07
2023-05-08T00:36:45.351Z,22.07
2023-05-08T00:37:50.770Z,22.06
2023-05-08T00:38:56.153Z,22.06
2023-05-08T00:40:01.494Z,22.07
2023-05-08T00:41:06.889Z,22.07
2023-05-08T00:42:12.299Z,22.07
2023-05-08T00:43:17.688Z,22.07
2023-05-08T00:44:23.047Z,22.07
2023-05-08T00:45:28.430Z,22.07
2023-05-08T00:46:36.888Z,22.06
2023-05-08T00:47:42.638Z,22.06
2023-05-08T00:48:48.133Z,22.06
2023-05-08T00:49:53.535Z,22.06
2023-05-08T00:50:58.919Z,22.06
2023-05-08T00:52:04.324Z,22.07
2023-05-08T00:53:09.758Z,22.07
2023-05-08T00:54:15.135Z,22.07
2023-05-08T00:55:20.537Z,22.07
2023-05-08T00:56:25.990Z,22.06
2023-05-08T00:57:31.388Z,22.06
2023-05-08T00:58:36.744Z,22.05
2023-05-08T00:59:42.128Z,22.06
2023-05-08T01:00:47.762Z,22.05
2023-05-08T01:01:53.203Z,22.05
2023-05-08T01:02:58.874Z,22.05
2023-05-08T01:04:04.913Z,22.04
2023-05-08T01:05:10.277Z,22.04
2023-05-08T01:06:15.705Z,22.04
2023-05-08T01:07:21.108Z,22.04
2023-05-08T01:08:26.528Z,22.04
2023-05-08T01:09:31.892Z,22.03
2023-05-08T01:10:37.307Z,22.05
2023-05-08T01:11:42.722Z,22.04
2023-05-08T01:12:48.150Z,22.04
2023-05-08T01:13:53.875Z,22.04
2023-05-08T01:14:59.247Z,22.04
2023-05-08T01:16:04.650Z,22.04
2023-05-08T01:17:10.115Z,22.03
2023-05-08T01:18:15.650Z,22.04
2023-05-08T01:19:21.055Z,22.04
2023-05-08T01:20:26.446Z,22.04
2023-05-08T01:21:31.838Z,22.05
2023-05-08T01:22:37.268Z,22.04
2023-05-08T01:23:42.704Z,22.03
2023-05-08T01:24:48.097Z,22.03
2023-05-08T01:25:53.485Z,22.03
2023-05-08T01:26:58.836Z,22.02
2023-05-08T01:28:06.591Z,22.03
2023-05-08T01:29:12.063Z,22.03
2023-05-08T01:30:17.475Z,22.04
2023-05-08T01:31:22.862Z,22.07
2023-05-08T01:32:28.243Z,22.08
2023-05-08T01:33:33.734Z,22.08
2023-05-08T01:34:39.293Z,22.08
2023-05-08T01:35:44.656Z,22.06
2023-05-08T01:36:50.115Z,22.06
2023-05-08T01:37:55.514Z,22.04
2023-05-08T01:39:00.864Z,22.04
2023-05-08T01:40:06.228Z,22.03
2023-05-08T01:41:11.622Z,22.04
2023-05-08T01:42:17.016Z,22.03
2023-05-08T01:43:22.461Z,22.03
2023-05-08T01:44:27.817Z,22.01
2023-05-08T01:45:33.174Z,22.01
2023-05-08T01:46:38.676Z,22.01
2023-05-08T01:47:44.517Z,22.02
2023-05-08T01:48:50.022Z,22.02
2023-05-08T01:49:55.401Z,22.01
2023-05-08T01:51:00.810Z,22
2023-05-08T01:52:06.218Z,21.99
2023-05-08T01:53:11.700Z,21.99
2023-05-08T01:54:17.124Z,22.01
2023-05-08T01:55:22.500Z,22.03
2023-05-08T01:56:27.902Z,22.04
2023-05-08T01:57:33.317Z,22.01
2023-05-08T01:58:38.679Z,22
2023-05-08T01:59:44.107Z,21.99
2023-05-08T02:00:49.534Z,21.99
2023-05-08T02:01:55.162Z,21.98
2023-05-08T02:03:00.720Z,22
2023-05-08T02:04:06.259Z,21.98
2023-05-08T02:05:11.765Z,21.99
2023-05-08T02:06:17.226Z,21.98
2023-05-08T02:07:22.660Z,21.98
2023-05-08T02:08:28.036Z,21.98
2023-05-08T02:09:33.435Z,21.98
2023-05-08T02:10:38.848Z,21.98
2023-05-08T02:11:44.268Z,21.98
2023-05-08T02:12:49.726Z,21.98
2023-05-08T02:13:55.236Z,21.98
2023-05-08T02:15:00.702Z,21.96
2023-05-08T02:16:06.171Z,21.97
2023-05-08T02:17:11.614Z,21.96
2023-05-08T02:18:17.014Z,21.95
2023-05-08T02:19:22.406Z,21.96
2023-05-08T02:20:27.760Z,21.95
2023-05-08T02:21:33.128Z,21.95
2023-05-08T02:22:38.517Z,21.96
2023-05-08T02:23:43.985Z,21.96
2023-05-08T02:24:49.379Z,21.98
2023-05-08T02:25:54.739Z,21.98
2023-05-08T02:27:00.350Z,21.98
2023-05-08T02:28:05.753Z,21.97
2023-05-08T02:29:11.144Z,21.97
2023-05-08T02:30:16.506Z,21.96
2023-05-08T02:31:21.972Z,21.97
2023-05-08T02:32:27.525Z,21.96
2023-05-08T02:33:32.981Z,21.96
2023-05-08T02:34:42.863Z,21.96
2023-05-08T02:36:06.660Z,21.96
2023-05-08T02:37:12.091Z,21.97
2023-05-08T02:38:17.455Z,21.96
2023-05-08T02:39:22.840Z,21.96
2023-05-08T02:40:28.285Z,21.96
2023-05-08T02:41:33.650Z,21.95
2023-05-08T02:42:39.057Z,21.97
2023-05-08T02:43:44.510Z,21.98
2023-05-08T02:44:49.881Z,21.98
2023-05-08T02:45:55.313Z,21.98
2023-05-08T02:47:00.844Z,21.97
2023-05-08T02:48:08.328Z,21.97
2023-05-08T02:49:13.742Z,21.97
2023-05-08T02:50:19.195Z,21.97
2023-05-08T02:51:24.593Z,21.98
2023-05-08T02:52:29.956Z,21.97
2023-05-08T02:53:35.346Z,21.97
2023-05-08T02:54:40.732Z,21.98
2023-05-08T02:55:46.151Z,21.97
2023-05-08T02:56:51.520Z,21.97
2023-05-08T02:57:56.900Z,21.96
2023-05-08T02:59:02.335Z,21.95
2023-05-08T03:00:07.762Z,21.96
2023-05-08T03:01:13.452Z,21.96
2023-05-08T03:02:18.907Z,21.96
2023-05-08T03:03:24.443Z,21.96
2023-05-08T03:04:30.307Z,21.95
2023-05-08T03:05:35.759Z,21.94
2023-05-08T03:06:41.152Z,21.93
2023-05-08T03:07:46.566Z,21.94
2023-05-08T03:08:51.944Z,21.94
2023-05-08T03:09:57.316Z,21.95
2023-05-08T03:11:02.744Z,21.95
2023-05-08T03:12:08.138Z,21.97
2023-05-08T03:13:13.635Z,21.98
2023-05-08T03:14:19.207Z,21.97
2023-05-08T03:15:24.566Z,21.98
2023-05-08T03:16:30.033Z,21.99
2023-05-08T03:17:35.630Z,21.98
2023-05-08T03:18:41.185Z,21.97
2023-05-08T03:19:46.584Z,21.97
2023-05-08T03:20:51.973Z,21.98
2023-05-08T03:21:57.354Z,21.99
2023-05-08T03:23:02.722Z,21.99
2023-05-08T03:24:08.107Z,21.99
2023-05-08T03:25:13.476Z,21.98
2023-05-08T03:26:18.887Z,21.98
2023-05-08T03:27:24.235Z,21.97
2023-05-08T03:28:29.594Z,21.98
2023-05-08T03:29:35.050Z,21.97
2023-05-08T03:30:40.694Z,21.96
2023-05-08T03:31:46.149Z,21.97
2023-05-08T03:32:51.834Z,21.98
2023-05-08T03:33:57.393Z,21.97
2023-05-08T03:35:02.820Z,21.97
2023-05-08T03:36:08.221Z,21.99
2023-05-08T03:37:13.623Z,21.99
2023-05-08T03:38:18.984Z,21.99
2023-05-08T03:39:24.405Z,22
2023-05-08T03:40:29.842Z,22
2023-05-08T03:41:35.219Z,22
2023-05-08T03:42:40.617Z,22.02
2023-05-08T03:43:46.001Z,22.02
2023-05-08T03:44:51.426Z,22.03
2023-05-08T03:45:56.883Z,22.02
2023-05-08T03:47:02.385Z,22.03
2023-05-08T03:48:08.219Z,22.03
2023-05-08T03:49:13.880Z,22.04
2023-05-08T03:50:19.271Z,22.04
2023-05-08T03:51:24.712Z,22.05
2023-05-08T03:52:30.068Z,22.05
2023-05-08T03:53:35.669Z,22.03
2023-05-08T03:54:41.268Z,22.03
2023-05-08T03:55:46.726Z,22.02
2023-05-08T03:56:52.189Z,22.02
2023-05-08T03:57:57.601Z,22.02
2023-05-08T03:59:02.955Z,22.02
2023-05-08T04:00:08.363Z,22.02
2023-05-08T04:01:14.337Z,22.01
2023-05-08T04:02:19.781Z,22.04
2023-05-08T04:03:25.567Z,22.08
2023-05-08T04:04:31.319Z,22.14
2023-05-08T04:05:36.713Z,22.14
2023-05-08T04:06:49.740Z,22.1
2023-05-08T04:07:55.838Z,22.09
2023-05-08T04:09:01.243Z,22.1
2023-05-08T04:10:06.613Z,22.11
2023-05-08T04:11:12.030Z,22.14
2023-05-08T04:12:17.387Z,22.16
2023-05-08T04:13:22.841Z,22.19
2023-05-08T04:14:28.509Z,22.24
2023-05-08T04:15:33.928Z,22.28
2023-05-08T04:16:39.372Z,22.31
2023-05-08T04:17:44.940Z,22.34
2023-05-08T04:18:50.488Z,22.38
2023-05-08T04:19:55.880Z,22.4
2023-05-08T04:21:01.261Z,22.4
2023-05-08T04:22:06.682Z,22.43
2023-05-08T04:23:12.043Z,22.43
2023-05-08T04:24:17.702Z,22.42
2023-05-08T04:25:23.162Z,22.44
2023-05-08T04:26:30.957Z,22.42
2023-05-08T04:27:36.708Z,22.42
2023-05-08T04:28:42.165Z,22.41
2023-05-08T04:29:47.568Z,22.39
2023-05-08T04:30:52.976Z,22.39
2023-05-08T04:31:58.430Z,22.39
2023-05-08T04:33:04.063Z,22.38
2023-05-08T04:34:09.843Z,22.38
2023-05-08T04:35:15.396Z,22.39
2023-05-08T04:36:20.901Z,22.38
2023-05-08T04:37:26.290Z,22.38
2023-05-08T04:38:31.682Z,22.39
2023-05-08T04:39:37.117Z,22.38
2023-05-08T04:40:43.662Z,22.38
2023-05-08T04:41:49.076Z,22.37
2023-05-08T04:42:54.528Z,22.36
2023-05-08T04:43:59.896Z,22.36
2023-05-08T04:45:05.226Z,22.34
2023-05-08T04:46:10.609Z,22.33
2023-05-08T04:47:16.202Z,22.34
2023-05-08T04:48:21.776Z,22.33
2023-05-08T04:49:27.164Z,22.34
2023-05-08T04:50:32.593Z,22.32
2023-05-08T04:51:37.942Z,22.31
2023-05-08T04:52:43.373Z,22.31
2023-05-08T04:53:48.750Z,22.3
2023-05-08T04:54:54.182Z,22.3
2023-05-08T04:55:59.594Z,22.3
2023-05-08T04:57:05.010Z,22.3
2023-05-08T04:58:10.369Z,22.28
2023-05-08T04:59:16.140Z,22.26
2023-05-08T05:00:21.670Z,22.27
2023-05-08T05:01:27.093Z,22.26
2023-05-08T05:02:32.727Z,22.27
2023-05-08T05:03:38.272Z,22.27
2023-05-08T05:04:43.746Z,22.25
2023-05-08T05:05:49.148Z,22.24
2023-05-08T05:06:54.504Z,22.23
2023-05-08T05:07:59.918Z,22.21
2023-05-08T05:09:05.290Z,22.21
2023-05-08T05:10:10.703Z,22.19
2023-05-08T05:11:16.117Z,22.19
2023-05-08T05:12:21.505Z,22.18
2023-05-08T05:13:26.983Z,22.16
2023-05-08T05:14:32.518Z,22.13
2023-05-08T05:15:37.931Z,22.15
2023-05-08T05:16:43.379Z,22.16
2023-05-08T05:17:49.256Z,22.14
2023-05-08T05:18:54.808Z,22.14
2023-05-08T05:20:00.197Z,22.11
2023-05-08T05:21:05.856Z,22.13
2023-05-08T05:22:11.293Z,22.12
2023-05-08T05:23:16.688Z,22.14
2023-05-08T05:24:22.083Z,22.15
2023-05-08T05:25:27.479Z,22.14
2023-05-08T05:26:33.447Z,22.14
2023-05-08T05:27:41.017Z,22.14
2023-05-08T05:28:46.357Z,22.15
2023-05-08T05:29:51.727Z,22.13
2023-05-08T05:30:57.091Z,22.1
2023-05-08T05:32:02.609Z,22.09
2023-05-08T05:33:08.084Z,22.08
2023-05-08T05:34:13.576Z,22.1
2023-05-08T05:35:18.963Z,22.09
2023-05-08T05:36:26.790Z,22.06
2023-05-08T05:37:32.194Z,22.09
2023-05-08T05:38:37.554Z,22.06
2023-05-08T05:39:42.940Z,22.06
2023-05-08T05:40:48.301Z,22.07
2023-05-08T05:41:53.671Z,22.06
2023-05-08T05:42:59.088Z,22.05
2023-05-08T05:44:04.482Z,22.05
2023-05-08T05:45:09.917Z,22.08
2023-05-08T05:46:16.259Z,22.05
2023-05-08T05:47:21.923Z,22.03
2023-05-08T05:48:27.442Z,22.04
2023-05-08T05:49:32.872Z,22.04
2023-05-08T05:50:38.226Z,22.01
2023-05-08T05:51:43.604Z,21.99
2023-05-08T05:52:49.024Z,22.01
2023-05-08T05:53:54.426Z,22
2023-05-08T05:54:59.826Z,21.99
2023-05-08T05:56:05.167Z,22
2023-05-08T05:57:10.551Z,22
2023-05-08T05:58:16.209Z,22
2023-05-08T05:59:21.601Z,22
2023-05-08T06:00:27.006Z,22
2023-05-08T06:01:32.472Z,22
2023-05-08T06:02:37.861Z,22.01
2023-05-08T06:03:43.676Z,22
2023-05-08T06:04:49.383Z,22
2023-05-08T06:05:55.848Z,21.98
2023-05-08T06:07:02.829Z,21.99
2023-05-08T06:08:08.284Z,22
2023-05-08T06:09:13.685Z,21.99
2023-05-08T06:10:19.093Z,21.96
2023-05-08T06:11:24.531Z,21.98
2023-05-08T06:12:30.176Z,21.98
2023-05-08T06:13:35.517Z,21.94
2023-05-08T06:14:41.163Z,21.95
2023-05-08T06:15:46.664Z,21.95
2023-05-08T06:16:52.141Z,21.94
2023-05-08T06:17:57.629Z,21.96
2023-05-08T06:19:03.111Z,21.94
2023-05-08T06:20:08.489Z,21.94
2023-05-08T06:21:13.890Z,21.98
2023-05-08T06:22:19.291Z,21.97
2023-05-08T06:23:24.690Z,21.95
2023-05-08T06:24:30.197Z,21.96
2023-05-08T06:25:35.582Z,21.95
2023-05-08T06:26:40.956Z,21.94
2023-05-08T06:27:46.396Z,21.91
2023-05-08T06:28:51.784Z,21.89
2023-05-08T06:29:58.167Z,21.92
2023-05-08T06:31:03.611Z,21.93
2023-05-08T06:32:09.253Z,21.94
2023-05-08T06:33:14.642Z,21.96
2023-05-08T06:34:20.077Z,21.92
2023-05-08T06:35:25.518Z,21.92
2023-05-08T06:36:30.922Z,21.94
2023-05-08T06:37:36.366Z,21.93
2023-05-08T06:38:41.775Z,21.93
2023-05-08T06:39:49.044Z,21.92
2023-05-08T06:41:15.494Z,21.93
2023-05-08T06:42:20.958Z,21.93
2023-05-08T06:43:26.337Z,21.93
2023-05-08T06:44:31.813Z,21.88
2023-05-08T06:45:39.486Z,21.87
2023-05-08T06:46:44.879Z,21.89
2023-05-08T06:47:50.736Z,21.9
2023-05-08T06:48:56.434Z,21.9
2023-05-08T06:50:01.876Z,21.88
2023-05-08T06:51:07.264Z,21.89
2023-05-08T06:52:12.650Z,21.9
2023-05-08T06:53:17.992Z,21.88
2023-05-08T06:54:23.391Z,21.88
2023-05-08T06:55:28.770Z,21.86
2023-05-08T06:56:34.159Z,21.84
2023-05-08T06:57:39.582Z,21.81
2023-05-08T06:58:50.738Z,21.78
2023-05-08T07:00:12.084Z,21.79
2023-05-08T07:01:17.613Z,21.78
2023-05-08T07:02:23.070Z,21.75
2023-05-08T07:03:28.670Z,21.77
2023-05-08T07:04:34.120Z,21.75
2023-05-08T07:05:39.593Z,21.72
2023-05-08T07:06:45.027Z,21.71
2023-05-08T07:07:50.417Z,21.66
2023-05-08T07:08:55.854Z,21.67
2023-05-08T07:10:01.305Z,21.64
2023-05-08T07:11:08.614Z,21.61
2023-05-08T07:12:13.983Z,21.57
2023-05-08T07:13:19.812Z,21.54
2023-05-08T07:14:25.452Z,21.57
2023-05-08T07:15:31.536Z,21.5
2023-05-08T07:16:37.363Z,21.52
2023-05-08T07:17:42.926Z,21.51
2023-05-08T07:18:48.455Z,21.5
2023-05-08T07:19:53.897Z,21.5
2023-05-08T07:20:59.305Z,21.49
2023-05-08T07:22:04.746Z,21.45
2023-05-08T07:23:10.572Z,21.44
2023-05-08T07:24:15.984Z,21.49
2023-05-08T07:25:21.400Z,21.48
2023-05-08T07:26:26.831Z,21.48
2023-05-08T07:27:32.203Z,21.43
2023-05-08T07:28:37.588Z,21.38
2023-05-08T07:29:42.997Z,21.35
2023-05-08T07:30:48.386Z,21.34
2023-05-08T07:31:53.965Z,21.33
2023-05-08T07:32:59.541Z,21.33
2023-05-08T07:34:05.066Z,21.38
2023-05-08T07:35:11.169Z,21.33
2023-05-08T07:36:17.830Z,21.32
2023-05-08T07:37:23.344Z,21.33
2023-05-08T07:38:28.728Z,21.35
2023-05-08T07:39:34.092Z,21.29
2023-05-08T07:40:39.495Z,21.25
2023-05-08T07:41:45.162Z,21.23
2023-05-08T07:42:53.876Z,21.23
2023-05-08T07:43:59.309Z,21.28
2023-05-08T07:45:04.737Z,21.23
2023-05-08T07:46:10.131Z,21.25
2023-05-08T07:47:15.583Z,21.24
2023-05-08T07:48:21.040Z,21.22
2023-05-08T07:49:26.472Z,21.2
2023-05-08T07:50:31.872Z,21.19
2023-05-08T07:51:37.280Z,21.21
2023-05-08T07:52:42.682Z,21.19
2023-05-08T07:53:49.290Z,21.19
2023-05-08T07:54:54.729Z,21.17
2023-05-08T07:56:00.147Z,21.16
2023-05-08T07:57:05.544Z,21.15
2023-05-08T07:58:11.015Z,21.14
2023-05-08T07:59:16.391Z,21.16
2023-05-08T08:00:21.833Z,21.13
2023-05-08T08:01:27.308Z,21.14
2023-05-08T08:02:32.828Z,21.15
2023-05-08T08:03:38.479Z,21.14
2023-05-08T08:04:44.168Z,21.13
2023-05-08T08:05:49.870Z,21.12
2023-05-08T08:06:55.259Z,21.12
2023-05-08T08:08:00.719Z,21.12
2023-05-08T08:09:06.389Z,21.16
2023-05-08T08:10:11.819Z,21.14
2023-05-08T08:11:17.253Z,21.15
2023-05-08T08:12:22.709Z,21.14
2023-05-08T08:13:28.111Z,21.14
2023-05-08T08:14:33.806Z,21.11
2023-05-08T08:15:39.442Z,21.13
2023-05-08T08:16:44.910Z,21.12
2023-05-08T08:17:50.509Z,21.12
2023-05-08T08:18:56.110Z,21.14
2023-05-08T08:20:01.499Z,21.11
2023-05-08T08:21:06.964Z,21.09
2023-05-08T08:22:12.388Z,21.08
2023-05-08T08:23:17.810Z,21.06
2023-05-08T08:24:23.211Z,21.09
2023-05-08T08:25:28.628Z,21.07
2023-05-08T08:26:34.001Z,21.07
2023-05-08T08:27:39.451Z,21.1
2023-05-08T08:28:44.872Z,21.08
2023-05-08T08:29:51.137Z,21.06
2023-05-08T08:31:20.335Z,21.07
2023-05-08T08:32:25.985Z,21.05
2023-05-08T08:33:31.453Z,21.03
2023-05-08T08:34:36.874Z,21.01
2023-05-08T08:35:42.243Z,21.03
2023-05-08T08:36:47.683Z,20.99
2023-05-08T08:37:53.090Z,20.99
2023-05-08T08:38:58.464Z,20.97
2023-05-08T08:40:03.894Z,21
2023-05-08T08:41:09.289Z,21.02
2023-05-08T08:42:14.628Z,20.97
2023-05-08T08:43:20.139Z,20.96
2023-05-08T08:44:25.512Z,20.92
2023-05-08T08:45:30.951Z,20.94
2023-05-08T08:46:36.334Z,20.96
2023-05-08T08:47:41.908Z,20.94
2023-05-08T08:48:47.424Z,20.95
2023-05-08T08:49:52.774Z,20.93
2023-05-08T08:50:58.152Z,20.91
2023-05-08T08:52:03.518Z,20.9
2023-05-08T08:53:08.864Z,20.9
2023-05-08T08:54:14.234Z,20.91
2023-05-08T08:55:19.620Z,20.91
2023-05-08T08:56:25.015Z,20.91
2023-05-08T08:57:30.413Z,20.91
2023-05-08T08:58:37.377Z,20.9
2023-05-08T08:59:43.466Z,20.92
2023-05-08T09:00:48.975Z,20.91
2023-05-08T09:01:54.360Z,20.93
2023-05-08T09:02:59.911Z,20.92
2023-05-08T09:04:05.840Z,20.93
2023-05-08T09:05:11.949Z,20.94
2023-05-08T09:06:18.046Z,20.94
2023-05-08T09:07:23.425Z,20.92
2023-05-08T09:08:28.748Z,20.92
2023-05-08T09:09:34.161Z,20.91
2023-05-08T09:10:39.579Z,20.9
2023-05-08T09:11:45.280Z,20.92
2023-05-08T09:12:50.695Z,20.92
2023-05-08T09:13:56.158Z,20.92
2023-05-08T09:15:01.528Z,20.93
2023-05-08T09:16:07.148Z,20.91
2023-05-08T09:17:12.668Z,20.91
2023-05-08T09:18:18.020Z,20.91
2023-05-08T09:19:25.602Z,20.92
2023-05-08T09:20:33.216Z,20.92
2023-05-08T09:21:38.533Z,20.92
2023-05-08T09:22:43.928Z,20.9
2023-05-08T09:23:49.282Z,20.9
2023-05-08T09:24:54.596Z,20.9
2023-05-08T09:25:59.941Z,20.91
2023-05-08T09:27:05.281Z,20.91
2023-05-08T09:28:10.637Z,20.91
2023-05-08T09:29:15.971Z,20.91
2023-05-08T09:30:21.291Z,20.92
2023-05-08T09:31:26.669Z,20.9
2023-05-08T09:32:34.904Z,20.89
2023-05-08T09:33:40.436Z,20.87
2023-05-08T09:34:45.775Z,20.88
2023-05-08T09:35:51.203Z,20.88
2023-05-08T09:36:59.019Z,20.88
2023-05-08T09:38:04.368Z,20.94
2023-05-08T09:39:09.689Z,20.99
2023-05-08T09:40:15.113Z,21.01
2023-05-08T09:41:20.495Z,21.02
2023-05-08T09:42:25.993Z,21.04
2023-05-08T09:43:31.345Z,21.02
2023-05-08T09:44:36.685Z,21.01
2023-05-08T09:45:42.036Z,21
2023-05-08T09:46:47.509Z,20.97
2023-05-08T09:47:52.882Z,20.96
2023-05-08T09:48:58.374Z,20.95
2023-05-08T09:50:03.735Z,20.93
2023-05-08T09:51:09.240Z,20.92
2023-05-08T09:52:14.592Z,20.91
2023-05-08T09:53:20.136Z,20.91
2023-05-08T09:54:25.481Z,20.9
2023-05-08T09:55:30.858Z,20.88
2023-05-08T09:56:36.292Z,20.87
2023-05-08T09:57:41.632Z,20.87
2023-05-08T09:58:47.015Z,20.88
2023-05-08T09:59:52.334Z,20.89
2023-05-08T10:00:57.947Z,20.92
2023-05-08T10:02:03.444Z,20.93
2023-05-08T10:03:08.946Z,20.9
2023-05-08T10:04:14.617Z,20.92
2023-05-08T10:05:20.042Z,20.92
2023-05-08T10:06:25.607Z,20.95
2023-05-08T10:07:30.987Z,20.91
2023-05-08T10:08:36.338Z,20.93
2023-05-08T10:09:50.072Z,20.92
2023-05-08T10:10:56.016Z,20.91
2023-05-08T10:12:01.382Z,20.92
2023-05-08T10:13:06.779Z,20.92
2023-05-08T10:14:12.371Z,20.92
2023-05-08T10:15:17.729Z,20.92
2023-05-08T10:16:23.099Z,20.9
2023-05-08T10:17:28.620Z,20.92
2023-05-08T10:18:34.262Z,20.91
2023-05-08T10:19:39.631Z,20.92
2023-05-08T10:20:44.985Z,20.94
2023-05-08T10:21:50.327Z,20.92
2023-05-08T10:22:55.667Z,20.94
2023-05-08T10:24:01.163Z,20.93
2023-05-08T10:25:06.533Z,20.95
2023-05-08T10:26:11.913Z,20.98
2023-05-08T10:27:17.304Z,20.98
2023-05-08T10:28:22.650Z,20.96
2023-05-08T10:29:28.073Z,20.95
2023-05-08T10:30:33.419Z,20.96
2023-05-08T10:31:38.890Z,20.95
2023-05-08T10:32:44.501Z,20.98
2023-05-08T10:33:50.008Z,20.98
2023-05-08T10:34:55.401Z,20.99
2023-05-08T10:36:00.740Z,20.99
2023-05-08T10:37:06.101Z,21
2023-05-08T10:38:13.958Z,20.99
2023-05-08T10:39:19.321Z,20.96
2023-05-08T10:40:24.695Z,20.96
2023-05-08T10:41:30.053Z,20.98
2023-05-08T10:42:35.404Z,20.99
2023-05-08T10:43:40.751Z,20.99
2023-05-08T10:44:46.102Z,20.98
2023-05-08T10:45:51.802Z,20.98
2023-05-08T10:46:58.081Z,20.98
2023-05-08T10:48:05.725Z,21.01
2023-05-08T10:49:11.281Z,21.02
2023-05-08T10:50:16.634Z,21.04
2023-05-08T10:51:22.061Z,21.03
2023-05-08T10:52:27.398Z,21.01
2023-05-08T10:53:32.774Z,21.01
2023-05-08T10:54:38.310Z,21
2023-05-08T10:55:43.700Z,21.03
2023-05-08T10:56:49.066Z,21.02
2023-05-08T10:57:54.501Z,21.03
2023-05-08T10:58:59.878Z,21.04
2023-05-08T11:00:05.213Z,21.07
2023-05-08T11:01:10.626Z,21.1
2023-05-08T11:02:16.600Z,21.15
2023-05-08T11:03:31.082Z,21.18
2023-05-08T11:04:37.897Z,21.21
2023-05-08T11:05:43.525Z,21.21
2023-05-08T11:06:48.928Z,21.23
2023-05-08T11:07:54.406Z,21.28
2023-05-08T11:09:00.750Z,21.3
2023-05-08T11:10:06.368Z,21.33
2023-05-08T11:11:11.736Z,21.34
2023-05-08T11:12:17.072Z,21.37
2023-05-08T11:13:23.523Z,21.38
2023-05-08T11:14:29.111Z,21.41
2023-05-08T11:15:34.505Z,21.42
2023-05-08T11:16:40.086Z,21.43
2023-05-08T11:17:45.913Z,21.43
2023-05-08T11:18:51.412Z,21.43
2023-05-08T11:19:56.728Z,21.42
2023-05-08T11:21:02.220Z,21.42
2023-05-08T11:22:07.526Z,21.42
2023-05-08T11:23:12.864Z,21.42
2023-05-08T11:24:18.204Z,21.41
2023-05-08T11:25:23.537Z,21.42
2023-05-08T11:26:28.880Z,21.42
2023-05-08T11:27:34.268Z,21.42
2023-05-08T11:28:39.599Z,21.43
2023-05-08T11:29:45.102Z,21.43
2023-05-08T11:30:50.552Z,21.43
2023-05-08T11:31:55.949Z,21.42
2023-05-08T11:33:01.643Z,21.42
2023-05-08T11:34:07.587Z,21.41
2023-05-08T11:35:12.915Z,21.4
2023-05-08T11:36:18.284Z,21.4
2023-05-08T11:37:23.598Z,21.4
2023-05-08T11:38:28.932Z,21.38
2023-05-08T11:39:34.269Z,21.37
2023-05-08T11:40:39.608Z,21.38
2023-05-08T11:41:44.950Z,21.37
2023-05-08T11:42:50.302Z,21.37
2023-05-08T11:43:55.679Z,21.37
2023-05-08T11:45:01.323Z,21.37
2023-05-08T11:46:06.724Z,21.38
2023-05-08T11:47:12.133Z,21.38
2023-05-08T11:48:17.840Z,21.38
2023-05-08T11:49:26.258Z,21.37
2023-05-08T11:50:34.151Z,21.37
2023-05-08T11:51:39.540Z,21.38
2023-05-08T11:52:44.892Z,21.38
2023-05-08T11:53:50.241Z,21.38
2023-05-08T11:54:55.603Z,21.38
2023-05-08T11:56:00.963Z,21.4
2023-05-08T11:57:06.360Z,21.41
2023-05-08T11:58:11.709Z,21.42
2023-05-08T11:59:17.196Z,21.44
2023-05-08T12:00:23.594Z,21.46
2023-05-08T12:01:29.032Z,21.47
2023-05-08T12:02:34.465Z,21.47
2023-05-08T12:03:40.447Z,21.47
2023-05-08T12:04:46.604Z,21.48
2023-05-08T12:05:52.640Z,21.48
2023-05-08T12:06:58.014Z,21.47
2023-05-08T12:08:03.362Z,21.48
2023-05-08T12:09:08.691Z,21.46
2023-05-08T12:10:14.482Z,21.46
2023-05-08T12:11:21.710Z,21.45
2023-05-08T12:12:27.088Z,21.44
2023-05-08T12:13:32.465Z,21.44
2023-05-08T12:14:37.983Z,21.43
2023-05-08T12:15:43.326Z,21.43
2023-05-08T12:16:48.720Z,21.42
2023-05-08T12:17:54.376Z,21.42
2023-05-08T12:18:59.923Z,21.41
2023-05-08T12:20:05.277Z,21.42
2023-05-08T12:21:10.578Z,21.41
2023-05-08T12:22:15.954Z,21.42
2023-05-08T12:23:21.342Z,21.42
2023-05-08T12:24:26.685Z,21.42
2023-05-08T12:25:32.062Z,21.4
2023-05-08T12:26:37.428Z,21.4
2023-05-08T12:27:42.793Z,21.41
2023-05-08T12:28:48.133Z,21.41
2023-05-08T12:29:53.457Z,21.42
2023-05-08T12:30:58.775Z,21.41
2023-05-08T12:32:04.301Z,21.41
2023-05-08T12:33:09.690Z,21.42
2023-05-08T12:34:15.182Z,21.43
2023-05-08T12:35:20.517Z,21.44
2023-05-08T12:36:25.876Z,21.44
2023-05-08T12:37:31.188Z,21.46
2023-05-08T12:38:36.550Z,21.45
2023-05-08T12:39:41.851Z,21.46
2023-05-08T12:40:47.184Z,21.44
2023-05-08T12:41:52.519Z,21.44
2023-05-08T12:42:57.896Z,21.44
2023-05-08T12:44:03.241Z,21.45
2023-05-08T12:45:08.599Z,21.45
2023-05-08T12:46:13.954Z,21.45
2023-05-08T12:47:19.458Z,21.44
2023-05-08T12:48:24.926Z,21.44
2023-05-08T12:49:30.328Z,21.43
2023-05-08T12:50:35.684Z,21.43
2023-05-08T12:51:41.012Z,21.42
2023-05-08T12:52:46.345Z,21.43
2023-05-08T12:53:54.629Z,21.43
2023-05-08T12:54:59.987Z,21.43
2023-05-08T12:56:05.326Z,21.42
2023-05-08T12:57:10.657Z,21.43
2023-05-08T12:58:16.195Z,21.44
2023-05-08T12:59:21.693Z,21.42
2023-05-08T13:00:27.106Z,21.41
2023-05-08T13:01:32.504Z,21.41
2023-05-08T13:02:44.419Z,21.4
2023-05-08T13:04:01.348Z,21.41
2023-05-08T13:05:07.627Z,21.4
2023-05-08T13:06:13.000Z,21.4
2023-05-08T13:07:18.366Z,21.4
2023-05-08T13:08:23.758Z,21.41
2023-05-08T13:09:29.242Z,21.39
2023-05-08T13:10:34.561Z,21.39
2023-05-08T13:11:39.942Z,21.39
2023-05-08T13:12:45.376Z,21.4
2023-05-08T13:13:50.824Z,21.4
2023-05-08T13:14:56.250Z,21.41
2023-05-08T13:16:01.693Z,21.42
2023-05-08T13:17:07.293Z,21.43
2023-05-08T13:18:12.674Z,21.44
2023-05-08T13:19:18.150Z,21.45
2023-05-08T13:20:24.352Z,21.45
2023-05-08T13:21:29.774Z,21.45
2023-05-08T13:22:35.168Z,21.45
2023-05-08T13:23:40.508Z,21.46
2023-05-08T13:24:45.921Z,21.45
2023-05-08T13:25:51.290Z,21.45
2023-05-08T13:26:56.654Z,21.45
2023-05-08T13:28:01.990Z,21.46
2023-05-08T13:29:07.384Z,21.46
2023-05-08T13:30:12.790Z,21.46
2023-05-08T13:31:18.648Z,21.46
2023-05-08T13:32:24.222Z,21.45
2023-05-08T13:33:29.696Z,21.44
2023-05-08T13:34:36.232Z,21.45
2023-05-08T13:35:56.808Z,21.44
2023-05-08T13:37:02.206Z,21.45
2023-05-08T13:38:07.580Z,21.46
2023-05-08T13:39:12.968Z,21.45
2023-05-08T13:40:18.329Z,21.45
2023-05-08T13:41:23.728Z,21.45
2023-05-08T13:42:29.074Z,21.45
2023-05-08T13:43:34.397Z,21.45
2023-05-08T13:44:39.716Z,21.46
2023-05-08T13:45:45.137Z,21.45
2023-05-08T13:46:50.633Z,21.46
2023-05-08T13:47:56.000Z,21.45
2023-05-08T13:49:01.531Z,21.44
2023-05-08T13:50:06.933Z,21.45
2023-05-08T13:51:12.310Z,21.45
2023-05-08T13:52:17.722Z,21.44
2023-05-08T13:53:23.046Z,21.44
2023-05-08T13:54:28.437Z,21.45
2023-05-08T13:55:33.784Z,21.44
2023-05-08T13:56:39.127Z,21.44
2023-05-08T13:57:44.505Z,21.45
2023-05-08T13:58:49.868Z,21.45
2023-05-08T13:59:55.214Z,21.44
2023-05-08T14:01:07.657Z,21.44
2023-05-08T14:02:30.673Z,21.44
2023-05-08T14:03:36.487Z,21.44
2023-05-08T14:04:42.278Z,21.44
2023-05-08T14:05:47.673Z,21.43
2023-05-08T14:06:52.967Z,21.44
2023-05-08T14:07:58.303Z,21.43
2023-05-08T14:09:03.641Z,21.43
2023-05-08T14:10:09.193Z,21.44
2023-05-08T14:11:16.776Z,21.44